Terminal Aerodrome Forecast
Issued by NWS

Home | Current Version | Previous Version | Graphics & Text | Print | Product List | Glossary On
Versions: 1 2 3 4 5 6 7 8 9 10 11 12 13 14
000
FTUS43 KABR 221121
TAFATY
TAF
KATY 221121Z 2212/2312 17007KT P6SM SKC
     FM221700 19015G23KT P6SM BKN150
     FM230100 28009KT P6SM FEW250
     FM231000 VRB06KT P6SM FEW200=

USA.gov is the U.S. government's official web portal to all federal, state and local government web resources and services.